Time;durP1;ratioP1;P1;durP2;ratioP2;P2;SDS_P1;SDS_P2;PMS_P1;PMS_P2;Temp;Humidity;BMP_temperature;BMP_pressure;BME280_temperature;BME280_humidity;BME280_pressure;Samples;Min_cycle;Max_cycle;Signal;HPM_P1;HPM_P2
2023/07/16 00:00:11;;;;;;;;;;;;;;;;;;4955979;28;8841;-83
2023/07/16 00:02:37;;;;;;;;;;;;;;;;;;4955653;28;7219;-83
2023/07/16 00:05:03;;;;;;;;;;;;;;;;;;4955964;28;7330;-84
2023/07/16 00:07:29;;;;;;;;;;;;;;;;;;4956019;28;8498;-84
2023/07/16 00:09:55;;;;;;;;;;;;;;;;;;4955324;28;7231;-83
2023/07/16 00:12:20;;;;;;;;;;;;;;;;;;4955848;28;8553;-83
2023/07/16 00:14:47;;;;;;;;;;;;;;;;;;4955395;28;8798;-84
2023/07/16 00:17:13;;;;;;;;;;;;;;;;;;4955833;28;8532;-83
2023/07/16 00:19:38;;;;;;;;;;;;;;;;;;4955481;28;8481;-82
2023/07/16 00:22:04;;;;;;;;;;;;;;;;;;4955205;28;8883;-83
2023/07/16 00:24:30;;;;;;;;;;;;;;;;;;4957769;28;9553;-82
2023/07/16 00:26:57;;;;;;;;;;;;;;;;;;4959872;28;8533;-82
2023/07/16 00:29:22;;;;;;;;;;;;;;;;;;4959130;28;8533;-83
2023/07/16 00:31:48;;;;;;;;;;;;;;;;;;4955089;28;7188;-83
2023/07/16 00:34:14;;;;;;;;;;;;;;;;;;4959969;28;7489;-82
2023/07/16 00:36:39;;;;;;;;;;;;;;;;;;4964087;28;8524;-83
2023/07/16 00:39:05;;;;;;;;;;;;;;;;;;4995528;28;8521;-84
2023/07/16 00:41:31;;;;;;;;;;;;;;;;;;4955172;28;7269;-85
2023/07/16 00:43:56;;;;;;;;;;;;;;;;;;4972199;28;8590;-82
2023/07/16 00:46:22;;;;;;;;;;;;;;;;;;4963957;28;8471;-83
2023/07/16 00:48:48;;;;;;;;;;;;;;;;;;4953947;28;7196;-82
2023/07/16 00:51:16;;;;;;;;;;;;;;;;;;4964166;28;8572;-83
2023/07/16 00:53:43;;;;;;;;;;;;;;;;;;4969502;28;8551;-83
2023/07/16 00:56:10;;;;;;;;;;;;;;;;;;4999606;28;7268;-82
2023/07/16 00:58:36;;;;;;;;;;;;;;;;;;5009681;28;8638;-82
2023/07/16 01:01:01;;;;;;;;;;;;;;;;;;5009752;28;8519;-83
2023/07/16 01:03:27;;;;;;;;;;;;;;;;;;5009857;28;7234;-83
2023/07/16 01:05:53;;;;;;;;;;;;;;;;;;5009541;28;8550;-82
2023/07/16 01:08:24;;;;;;;;;;;;;;;;;;5010149;28;8484;-83
2023/07/16 01:10:49;;;;;;;;;;;;;;;;;;4994742;28;8384;-83
2023/07/16 01:13:15;;;;;;;;;;;;;;;;;;4973853;28;8521;-82
2023/07/16 01:18:22;;;;;;;;;;;;;;;;;;5071848;23;6973;-83
2023/07/16 01:20:48;;;;;;;;;;;;;;;;;;4943453;28;7290;-82
2023/07/16 01:23:32;;;;;;;;;;;;;;;;;;4965985;28;8005;-83
2023/07/16 01:26:01;;;;;;;;;;;;;;;;;;4948986;28;7341;-81
2023/07/16 01:28:55;;;;;;;;;;;;;;;;;;4956547;28;9304;-82
2023/07/16 01:31:22;;;;;;;;;;;;;;;;;;4947114;29;8666;-81
2023/07/16 01:33:49;;;;;;;;;;;;;;;;;;4961911;28;7157;-81
2023/07/16 01:36:16;;;;;;;;;;;;;;;;;;4970370;28;8432;-81
2023/07/16 01:38:41;;;;;;;;;;;;;;;;;;4971300;28;7949;-82
2023/07/16 01:41:07;;;;;;;;;;;;;;;;;;4970446;28;7237;-82
2023/07/16 01:43:32;;;;;;;;;;;;;;;;;;4971035;28;7335;-81
2023/07/16 01:45:58;;;;;;;;;;;;;;;;;;4970752;28;8461;-81
2023/07/16 01:48:37;;;;;;;;;;;;;;;;;;4970705;28;8359;-82
2023/07/16 01:51:03;;;;;;;;;;;;;;;;;;4969296;28;8867;-81
2023/07/16 01:53:31;;;;;;;;;;;;;;;;;;4961018;28;8587;-82
2023/07/16 01:55:57;;;;;;;;;;;;;;;;;;4963473;28;8526;-82
2023/07/16 01:58:22;;;;;;;;;;;;;;;;;;4935627;29;8515;-82
2023/07/16 02:00:49;;;;;;;;;;;;;;;;;;4937082;29;8409;-83
2023/07/16 02:03:15;;;;;;;;;;;;;;;;;;4939236;29;7243;-83
2023/07/16 02:05:40;;;;;;;;;;;;;;;;;;4942765;28;7142;-83
2023/07/16 02:08:06;;;;;;;;;;;;;;;;;;4973325;28;7345;-83
2023/07/16 02:10:31;;;;;;;;;;;;;;;;;;4961457;28;8537;-83
2023/07/16 02:12:57;;;;;;;;;;;;;;;;;;4962767;28;8442;-83
2023/07/16 02:15:22;;;;;;;;;;;;;;;;;;4965214;28;8489;-83
2023/07/16 02:17:48;;;;;;;;;;;;;;;;;;4962069;28;8493;-82
2023/07/16 02:20:13;;;;;;;;;;;;;;;;;;4962045;28;8468;-82
2023/07/16 02:22:39;;;;;;;;;;;;;;;;;;4955912;28;8495;-83
2023/07/16 02:25:05;;;;;;;;;;;;;;;;;;4954202;28;7250;-82
2023/07/16 02:27:30;;;;;;;;;;;;;;;;;;4953707;28;8497;-83
2023/07/16 02:29:56;;;;;;;;;;;;;;;;;;4953695;28;7131;-82
2023/07/16 02:32:22;;;;;;;;;;;;;;;;;;4973111;28;8748;-82
2023/07/16 02:34:47;;;;;;;;;;;;;;;;;;4956703;28;8649;-83
2023/07/16 02:37:13;;;;;;;;;;;;;;;;;;4956741;28;8498;-82
2023/07/16 02:39:39;;;;;;;;;;;;;;;;;;4956851;28;8484;-82
2023/07/16 02:42:04;;;;;;;;;;;;;;;;;;4956724;28;8402;-83
2023/07/16 02:44:30;;;;;;;;;;;;;;;;;;4956725;28;9005;-83
2023/07/16 02:46:55;;;;;;;;;;;;;;;;;;4956723;28;7137;-84
2023/07/16 02:49:21;;;;;;;;;;;;;;;;;;4951447;28;8494;-81
2023/07/16 02:51:46;;;;;;;;;;;;;;;;;;4954681;28;7362;-81
2023/07/16 02:54:12;;;;;;;;;;;;;;;;;;4955103;28;8467;-82
2023/07/16 02:56:37;;;;;;;;;;;;;;;;;;4955925;28;8620;-81
2023/07/16 02:59:02;;;;;;;;;;;;;;;;;;4955719;28;8814;-82
2023/07/16 03:01:28;;;;;;;;;;;;;;;;;;4956237;28;7235;-81
2023/07/16 03:03:53;;;;;;;;;;;;;;;;;;4956290;28;8840;-82
2023/07/16 03:06:19;;;;;;;;;;;;;;;;;;4956137;28;7308;-82
2023/07/16 03:08:45;;;;;;;;;;;;;;;;;;4956292;28;7151;-81
2023/07/16 03:11:11;;;;;;;;;;;;;;;;;;4955549;28;7155;-82
2023/07/16 03:13:37;;;;;;;;;;;;;;;;;;4955838;28;8487;-82
2023/07/16 03:16:02;;;;;;;;;;;;;;;;;;4956049;28;8453;-82
2023/07/16 03:18:29;;;;;;;;;;;;;;;;;;4956028;28;8600;-83
2023/07/16 03:20:55;;;;;;;;;;;;;;;;;;4955843;28;8536;-82
2023/07/16 03:23:21;;;;;;;;;;;;;;;;;;4956095;28;8714;-82
2023/07/16 03:25:47;;;;;;;;;;;;;;;;;;4956437;28;7134;-83
2023/07/16 03:28:13;;;;;;;;;;;;;;;;;;4955821;28;8467;-82
2023/07/16 03:30:39;;;;;;;;;;;;;;;;;;4955836;28;7362;-82
2023/07/16 03:33:04;;;;;;;;;;;;;;;;;;4955727;28;7226;-82
2023/07/16 03:35:30;;;;;;;;;;;;;;;;;;4955917;28;8429;-83
2023/07/16 03:37:57;;;;;;;;;;;;;;;;;;4956016;28;8682;-82
2023/07/16 03:40:26;;;;;;;;;;;;;;;;;;4955912;28;8535;-82
2023/07/16 03:42:52;;;;;;;;;;;;;;;;;;4955768;28;9299;-84
2023/07/16 03:45:18;;;;;;;;;;;;;;;;;;4955696;28;9481;-83
2023/07/16 03:47:44;;;;;;;;;;;;;;;;;;4955802;28;8516;-82
2023/07/16 03:50:10;;;;;;;;;;;;;;;;;;4955390;28;8694;-82
2023/07/16 03:52:35;;;;;;;;;;;;;;;;;;4955410;28;8493;-82
2023/07/16 03:55:01;;;;;;;;;;;;;;;;;;4955624;28;8520;-82
2023/07/16 03:57:28;;;;;;;;;;;;;;;;;;4955062;28;8974;-82
2023/07/16 03:59:53;;;;;;;;;;;;;;;;;;4955564;28;8503;-83
2023/07/16 04:02:19;;;;;;;;;;;;;;;;;;4955203;28;8520;-82
2023/07/16 04:04:44;;;;;;;;;;;;;;;;;;4955258;28;8591;-81
2023/07/16 04:07:10;;;;;;;;;;;;;;;;;;4955039;28;8882;-82
2023/07/16 04:09:39;;;;;;;;;;;;;;;;;;4955021;28;7163;-82
2023/07/16 04:12:07;;;;;;;;;;;;;;;;;;4955027;28;8525;-82
2023/07/16 04:14:33;;;;;;;;;;;;;;;;;;4955499;28;8631;-82
2023/07/16 04:16:58;;;;;;;;;;;;;;;;;;4954721;28;8737;-82
2023/07/16 04:19:24;;;;;;;;;;;;;;;;;;4954968;28;8814;-83
2023/07/16 04:21:49;;;;;;;;;;;;;;;;;;4955080;28;8402;-83
2023/07/16 04:24:15;;;;;;;;;;;;;;;;;;4949471;28;8799;-83
2023/07/16 04:26:40;;;;;;;;;;;;;;;;;;4947305;28;8505;-83
2023/07/16 04:29:06;;;;;;;;;;;;;;;;;;4944701;28;8516;-82
2023/07/16 04:31:31;;;;;;;;;;;;;;;;;;4949130;28;8472;-83
2023/07/16 04:33:57;;;;;;;;;;;;;;;;;;4953510;28;8545;-83
2023/07/16 04:36:22;;;;;;;;;;;;;;;;;;4940900;28;8753;-83
2023/07/16 04:38:48;;;;;;;;;;;;;;;;;;4971265;28;7100;-83
2023/07/16 04:41:13;;;;;;;;;;;;;;;;;;4971379;28;7129;-82
2023/07/16 04:43:40;;;;;;;;;;;;;;;;;;4956872;28;8567;-83
2023/07/16 04:46:05;;;;;;;;;;;;;;;;;;4935868;29;9013;-83
2023/07/16 04:48:31;;;;;;;;;;;;;;;;;;4936072;29;8424;-82
2023/07/16 04:50:56;;;;;;;;;;;;;;;;;;4935680;29;8522;-82
2023/07/16 04:53:22;;;;;;;;;;;;;;;;;;4952566;28;7257;-82
2023/07/16 04:55:48;;;;;;;;;;;;;;;;;;4968864;28;7260;-82
2023/07/16 04:58:14;;;;;;;;;;;;;;;;;;4969294;28;9494;-82
2023/07/16 05:00:40;;;;;;;;;;;;;;;;;;4969776;28;7474;-82
2023/07/16 05:03:05;;;;;;;;;;;;;;;;;;4969740;28;7461;-82
2023/07/16 05:05:31;;;;;;;;;;;;;;;;;;4970058;28;7258;-82
2023/07/16 05:07:56;;;;;;;;;;;;;;;;;;4970249;28;8511;-82
2023/07/16 05:10:21;;;;;;;;;;;;;;;;;;4969942;28;7204;-83
2023/07/16 05:12:47;;;;;;;;;;;;;;;;;;4969752;28;8524;-83
2023/07/16 05:15:12;;;;;;;;;;;;;;;;;;4970397;28;8484;-83
2023/07/16 05:17:38;;;;;;;;;;;;;;;;;;4969824;28;8534;-83
2023/07/16 05:20:04;;;;;;;;;;;;;;;;;;4970140;28;7282;-83
2023/07/16 05:22:30;;;;;;;;;;;;;;;;;;4970293;28;8534;-83
2023/07/16 05:24:56;;;;;;;;;;;;;;;;;;4969908;28;8841;-83
2023/07/16 05:27:21;;;;;;;;;;;;;;;;;;4970116;28;8424;-83
2023/07/16 05:29:48;;;;;;;;;;;;;;;;;;4970146;28;8517;-83
2023/07/16 05:32:13;;;;;;;;;;;;;;;;;;4969988;28;6915;-83
2023/07/16 05:34:39;;;;;;;;;;;;;;;;;;4970203;28;7120;-82
2023/07/16 05:37:05;;;;;;;;;;;;;;;;;;4974079;28;8494;-82
2023/07/16 05:39:30;;;;;;;;;;;;;;;;;;4974059;28;7681;-83
2023/07/16 05:41:56;;;;;;;;;;;;;;;;;;4974010;28;8500;-82
2023/07/16 05:44:22;;;;;;;;;;;;;;;;;;4973961;28;8770;-85
2023/07/16 05:46:48;;;;;;;;;;;;;;;;;;4973951;28;7215;-82
2023/07/16 05:49:14;;;;;;;;;;;;;;;;;;4973837;28;8749;-82
2023/07/16 05:51:39;;;;;;;;;;;;;;;;;;4974019;28;8539;-83
2023/07/16 05:54:04;;;;;;;;;;;;;;;;;;4974196;28;8829;-82
2023/07/16 05:56:30;;;;;;;;;;;;;;;;;;4973543;28;8518;-83
2023/07/16 05:58:56;;;;;;;;;;;;;;;;;;4974046;28;7444;-83
2023/07/16 06:01:22;;;;;;;;;;;;;;;;;;4973641;28;8820;-81
2023/07/16 06:03:47;;;;;;;;;;;;;;;;;;4973638;28;7147;-83
2023/07/16 06:06:13;;;;;;;;;;;;;;;;;;4973374;28;8512;-82
2023/07/16 06:08:38;;;;;;;;;;;;;;;;;;4960872;28;8578;-83
2023/07/16 06:11:04;;;;;;;;;;;;;;;;;;4945542;28;8634;-82
2023/07/16 06:13:29;;;;;;;;;;;;;;;;;;4961653;28;8547;-82
2023/07/16 06:15:55;;;;;;;;;;;;;;;;;;4965875;28;8526;-81
2023/07/16 06:18:20;;;;;;;;;;;;;;;;;;4971829;28;7278;-82
2023/07/16 06:20:46;;;;;;;;;;;;;;;;;;4972122;28;7161;-83
2023/07/16 06:23:12;;;;;;;;;;;;;;;;;;4951708;28;8584;-86
2023/07/16 06:25:40;;;;;;;;;;;;;;;;;;4959886;28;8876;-86
2023/07/16 06:28:06;;;;;;;;;;;;;;;;;;4944578;28;7188;-81
2023/07/16 06:30:32;;;;;;;;;;;;;;;;;;4959870;28;8484;-81
2023/07/16 06:32:58;;;;;;;;;;;;;;;;;;4953275;28;7122;-83
2023/07/16 06:35:24;;;;;;;;;;;;;;;;;;4972727;28;8508;-82
2023/07/16 06:37:49;;;;;;;;;;;;;;;;;;4965391;28;7140;-83
2023/07/16 06:40:15;;;;;;;;;;;;;;;;;;4937513;29;7604;-82
2023/07/16 06:42:40;;;;;;;;;;;;;;;;;;4937427;29;7263;-82
2023/07/16 06:45:07;;;;;;;;;;;;;;;;;;4937286;29;8586;-82
2023/07/16 06:47:32;;;;;;;;;;;;;;;;;;4937182;29;8490;-83
2023/07/16 06:49:58;;;;;;;;;;;;;;;;;;4937253;29;7354;-82
2023/07/16 06:52:27;;;;;;;;;;;;;;;;;;4937284;29;8498;-82
2023/07/16 06:54:53;;;;;;;;;;;;;;;;;;4937401;28;8596;-83
2023/07/16 06:57:18;;;;;;;;;;;;;;;;;;4936742;29;8518;-83
2023/07/16 06:59:44;;;;;;;;;;;;;;;;;;4937511;29;8826;-83
2023/07/16 07:02:10;;;;;;;;;;;;;;;;;;4937312;29;7262;-81
2023/07/16 07:04:35;;;;;;;;;;;;;;;;;;4937797;29;8426;-83
2023/07/16 07:07:01;;;;;;;;;;;;;;;;;;4937148;29;8592;-83
2023/07/16 07:09:26;;;;;;;;;;;;;;;;;;4936935;29;7262;-82
2023/07/16 07:11:52;;;;;;;;;;;;;;;;;;4937107;29;8725;-83
2023/07/16 07:14:18;;;;;;;;;;;;;;;;;;4937109;29;7263;-81
2023/07/16 07:16:43;;;;;;;;;;;;;;;;;;4937099;29;8530;-82
2023/07/16 07:19:09;;;;;;;;;;;;;;;;;;4937159;29;7162;-83
2023/07/16 07:21:34;;;;;;;;;;;;;;;;;;4940967;28;7104;-83
2023/07/16 07:24:00;;;;;;;;;;;;;;;;;;4961905;28;8501;-82
2023/07/16 07:26:25;;;;;;;;;;;;;;;;;;4952472;28;7704;-84
2023/07/16 07:28:51;;;;;;;;;;;;;;;;;;4972009;28;8768;-81
2023/07/16 07:31:16;;;;;;;;;;;;;;;;;;4971961;28;8518;-83
2023/07/16 07:33:42;;;;;;;;;;;;;;;;;;4971820;28;9393;-83
2023/07/16 07:36:08;;;;;;;;;;;;;;;;;;4971893;28;8800;-82
2023/07/16 07:38:33;;;;;;;;;;;;;;;;;;4971922;28;8491;-82
2023/07/16 07:40:58;;;;;;;;;;;;;;;;;;4971432;28;8412;-81
2023/07/16 07:43:24;;;;;;;;;;;;;;;;;;4972012;28;8472;-82
2023/07/16 07:45:49;;;;;;;;;;;;;;;;;;4971964;28;7221;-83
2023/07/16 07:48:15;;;;;;;;;;;;;;;;;;4971266;28;7333;-83
2023/07/16 07:50:41;;;;;;;;;;;;;;;;;;4971366;28;8820;-83
2023/07/16 07:53:06;;;;;;;;;;;;;;;;;;4971541;28;7278;-85
2023/07/16 07:55:33;;;;;;;;;;;;;;;;;;4970377;28;8551;-83
2023/07/16 07:57:58;;;;;;;;;;;;;;;;;;4946098;28;8449;-82
2023/07/16 08:00:24;;;;;;;;;;;;;;;;;;4936037;29;8846;-84
2023/07/16 08:02:49;;;;;;;;;;;;;;;;;;4936396;29;8857;-81
2023/07/16 08:05:15;;;;;;;;;;;;;;;;;;4936190;29;8591;-82
2023/07/16 08:07:40;;;;;;;;;;;;;;;;;;4935775;29;8524;-81
2023/07/16 08:10:06;;;;;;;;;;;;;;;;;;4935899;29;7242;-84
2023/07/16 08:12:32;;;;;;;;;;;;;;;;;;4935889;29;8540;-83
2023/07/16 08:14:58;;;;;;;;;;;;;;;;;;4935918;29;8589;-82
2023/07/16 08:17:23;;;;;;;;;;;;;;;;;;4935389;29;8788;-84
2023/07/16 08:19:49;;;;;;;;;;;;;;;;;;4935643;29;8529;-84
2023/07/16 08:22:14;;;;;;;;;;;;;;;;;;4941456;28;7235;-84
2023/07/16 08:24:39;;;;;;;;;;;;;;;;;;4945450;28;7338;-83
2023/07/16 08:27:05;;;;;;;;;;;;;;;;;;4935790;29;8738;-83
2023/07/16 08:29:31;;;;;;;;;;;;;;;;;;4935845;29;7518;-82
2023/07/16 08:31:56;;;;;;;;;;;;;;;;;;4947257;28;8436;-83
2023/07/16 08:34:21;;;;;;;;;;;;;;;;;;4954492;28;8515;-85
2023/07/16 08:36:47;;;;;;;;;;;;;;;;;;4955075;28;7277;-82
2023/07/16 08:39:12;;;;;;;;;;;;;;;;;;4954479;28;8498;-81
2023/07/16 08:41:39;;;;;;;;;;;;;;;;;;4954457;28;8728;-82
2023/07/16 08:44:05;;;;;;;;;;;;;;;;;;4954032;28;9623;-83
2023/07/16 08:46:31;;;;;;;;;;;;;;;;;;4954456;28;8612;-80
2023/07/16 08:48:57;;;;;;;;;;;;;;;;;;4954533;28;8388;-81
2023/07/16 08:51:23;;;;;;;;;;;;;;;;;;4954139;28;9009;-82
2023/07/16 08:53:48;;;;;;;;;;;;;;;;;;4954194;28;7262;-84
2023/07/16 08:56:14;;;;;;;;;;;;;;;;;;4954428;28;7200;-84
2023/07/16 08:58:43;;;;;;;;;;;;;;;;;;4954544;28;7263;-82
2023/07/16 09:01:10;;;;;;;;;;;;;;;;;;4954429;28;7173;-84
2023/07/16 09:03:36;;;;;;;;;;;;;;;;;;4954324;28;8450;-83
2023/07/16 09:06:04;;;;;;;;;;;;;;;;;;4954026;28;8550;-83
2023/07/16 09:08:29;;;;;;;;;;;;;;;;;;4953849;28;8529;-82
2023/07/16 09:10:56;;;;;;;;;;;;;;;;;;4953755;28;7356;-83
2023/07/16 09:13:26;;;;;;;;;;;;;;;;;;4954102;28;8706;-84
2023/07/16 09:15:53;;;;;;;;;;;;;;;;;;4954263;28;8906;-82
2023/07/16 09:18:23;;;;;;;;;;;;;;;;;;4953795;28;9195;-83
2023/07/16 09:20:54;;;;;;;;;;;;;;;;;;4953771;28;7260;-82
2023/07/16 09:23:19;;;;;;;;;;;;;;;;;;4955136;28;8527;-82
2023/07/16 09:25:45;;;;;;;;;;;;;;;;;;4934860;29;8789;-83
2023/07/16 09:28:12;;;;;;;;;;;;;;;;;;4953279;28;8388;-81
2023/07/16 09:30:38;;;;;;;;;;;;;;;;;;4966038;28;7429;-83
2023/07/16 09:33:14;;;;;;;;;;;;;;;;;;4934854;29;9027;-82
2023/07/16 09:35:40;;;;;;;;;;;;;;;;;;4940045;29;8480;-82
2023/07/16 09:38:06;;;;;;;;;;;;;;;;;;4952303;28;8825;-83
2023/07/16 09:40:31;;;;;;;;;;;;;;;;;;4936982;29;8821;-82
2023/07/16 09:42:57;;;;;;;;;;;;;;;;;;4950161;28;8536;-83
2023/07/16 09:45:22;;;;;;;;;;;;;;;;;;4950215;28;8588;-82
2023/07/16 09:47:48;;;;;;;;;;;;;;;;;;4949961;28;8723;-82
2023/07/16 09:50:14;;;;;;;;;;;;;;;;;;4934602;29;7340;-84
2023/07/16 09:52:42;;;;;;;;;;;;;;;;;;4934302;29;9016;-84
2023/07/16 09:55:09;;;;;;;;;;;;;;;;;;4934096;29;8603;-83
2023/07/16 09:57:41;;;;;;;;;;;;;;;;;;4934126;29;8538;-83
2023/07/16 10:00:15;;;;;;;;;;;;;;;;;;4947523;28;8564;-84
2023/07/16 10:02:41;;;;;;;;;;;;;;;;;;4950059;28;8635;-84
2023/07/16 10:05:25;;;;;;;;;;;;;;;;;;4965436;28;8570;-82
2023/07/16 10:07:52;;;;;;;;;;;;;;;;;;4951217;29;7207;-84
2023/07/16 10:10:18;;;;;;;;;;;;;;;;;;4969582;28;7294;-83
2023/07/16 10:12:55;;;;;;;;;;;;;;;;;;4953213;28;8918;-82
2023/07/16 10:15:26;;;;;;;;;;;;;;;;;;4969467;28;8955;-83
2023/07/16 10:17:52;;;;;;;;;;;;;;;;;;4969060;28;8901;-80
2023/07/16 10:20:28;;;;;;;;;;;;;;;;;;4969358;28;7178;-86
2023/07/16 10:22:53;;;;;;;;;;;;;;;;;;4973649;28;8574;-82
2023/07/16 10:25:19;;;;;;;;;;;;;;;;;;4973082;28;8788;-85
2023/07/16 10:27:45;;;;;;;;;;;;;;;;;;4957338;28;8559;-83
2023/07/16 10:30:11;;;;;;;;;;;;;;;;;;4972662;28;8715;-83
2023/07/16 10:32:37;;;;;;;;;;;;;;;;;;4972914;28;8650;-83
2023/07/16 10:35:04;;;;;;;;;;;;;;;;;;4972226;28;8530;-83
2023/07/16 10:37:29;;;;;;;;;;;;;;;;;;4944969;28;7318;-83
2023/07/16 10:39:58;;;;;;;;;;;;;;;;;;4959319;28;7259;-82
2023/07/16 10:42:24;;;;;;;;;;;;;;;;;;4942525;28;8596;-84
2023/07/16 10:44:51;;;;;;;;;;;;;;;;;;4958914;28;7260;-83
2023/07/16 10:47:24;;;;;;;;;;;;;;;;;;4937692;28;8903;-84
2023/07/16 10:49:51;;;;;;;;;;;;;;;;;;4967990;28;7275;-84
2023/07/16 10:52:18;;;;;;;;;;;;;;;;;;4972646;28;9239;-83
2023/07/16 10:54:44;;;;;;;;;;;;;;;;;;4972292;28;8778;-83
2023/07/16 10:57:11;;;;;;;;;;;;;;;;;;4972493;28;8682;-82
2023/07/16 10:59:39;;;;;;;;;;;;;;;;;;4967158;28;7248;-83
2023/07/16 11:02:08;;;;;;;;;;;;;;;;;;4952366;28;8505;-81
2023/07/16 11:04:35;;;;;;;;;;;;;;;;;;4972565;28;8860;-81
2023/07/16 11:07:03;;;;;;;;;;;;;;;;;;4971313;28;6933;-84
2023/07/16 11:09:29;;;;;;;;;;;;;;;;;;4945165;28;7165;-81
2023/07/16 11:11:56;;;;;;;;;;;;;;;;;;4937225;29;8781;-83
2023/07/16 11:14:21;;;;;;;;;;;;;;;;;;4937142;28;7170;-83
2023/07/16 11:16:48;;;;;;;;;;;;;;;;;;4936548;29;7420;-83
2023/07/16 11:19:14;;;;;;;;;;;;;;;;;;4936779;29;8568;-82
2023/07/16 11:21:40;;;;;;;;;;;;;;;;;;4936814;29;8816;-82
2023/07/16 11:24:09;;;;;;;;;;;;;;;;;;4937000;29;8868;-84
2023/07/16 11:26:35;;;;;;;;;;;;;;;;;;4936973;29;8999;-84
2023/07/16 11:29:11;;;;;;;;;;;;;;;;;;4936826;29;8543;-85
2023/07/16 11:31:40;;;;;;;;;;;;;;;;;;4936757;29;9011;-84
2023/07/16 11:34:07;;;;;;;;;;;;;;;;;;4936001;29;9266;-83
2023/07/16 11:36:33;;;;;;;;;;;;;;;;;;4936690;29;8534;-82
2023/07/16 11:38:59;;;;;;;;;;;;;;;;;;4936195;29;8697;-82
2023/07/16 11:41:24;;;;;;;;;;;;;;;;;;4936649;29;8580;-81
2023/07/16 11:43:50;;;;;;;;;;;;;;;;;;4936133;29;7180;-82
2023/07/16 11:46:16;;;;;;;;;;;;;;;;;;4936732;29;8578;-82
2023/07/16 11:48:42;;;;;;;;;;;;;;;;;;4936124;29;7459;-83
2023/07/16 11:51:08;;;;;;;;;;;;;;;;;;4942044;28;8343;-85
2023/07/16 11:53:34;;;;;;;;;;;;;;;;;;4941683;28;8482;-84
2023/07/16 11:55:59;;;;;;;;;;;;;;;;;;4971613;28;8479;-82
2023/07/16 11:58:25;;;;;;;;;;;;;;;;;;4967933;28;8486;-85
2023/07/16 12:00:51;;;;;;;;;;;;;;;;;;4944972;28;8357;-85
2023/07/16 12:03:17;;;;;;;;;;;;;;;;;;4960399;28;9008;-84
2023/07/16 12:05:42;;;;;;;;;;;;;;;;;;4959235;28;8463;-86
2023/07/16 12:08:14;;;;;;;;;;;;;;;;;;4952207;28;8531;-82
2023/07/16 12:10:42;;;;;;;;;;;;;;;;;;4951865;28;8509;-81
2023/07/16 12:13:08;;;;;;;;;;;;;;;;;;4952056;28;8919;-85
2023/07/16 12:15:33;;;;;;;;;;;;;;;;;;4951893;28;8517;-82
2023/07/16 12:17:59;;;;;;;;;;;;;;;;;;4960910;28;9216;-82
2023/07/16 12:20:25;;;;;;;;;;;;;;;;;;4953451;28;8972;-82
2023/07/16 12:22:50;;;;;;;;;;;;;;;;;;4935556;29;7268;-83
2023/07/16 12:25:18;;;;;;;;;;;;;;;;;;4943490;28;8467;-81
2023/07/16 12:27:43;;;;;;;;;;;;;;;;;;4948723;28;8790;-81
2023/07/16 12:30:10;;;;;;;;;;;;;;;;;;4952025;28;8420;-82
2023/07/16 12:32:35;;;;;;;;;;;;;;;;;;4935824;29;7289;-81
2023/07/16 12:35:01;;;;;;;;;;;;;;;;;;4936026;29;8501;-83
2023/07/16 12:37:27;;;;;;;;;;;;;;;;;;4935728;29;8830;-83
2023/07/16 12:39:52;;;;;;;;;;;;;;;;;;4935673;29;9014;-83
2023/07/16 12:42:18;;;;;;;;;;;;;;;;;;4935633;29;8510;-81
2023/07/16 12:44:43;;;;;;;;;;;;;;;;;;4935840;29;8658;-85
2023/07/16 12:47:09;;;;;;;;;;;;;;;;;;4935715;29;8071;-83
2023/07/16 12:49:35;;;;;;;;;;;;;;;;;;4935082;29;7254;-84
2023/07/16 12:52:00;;;;;;;;;;;;;;;;;;4934962;29;7132;-83
2023/07/16 12:54:26;;;;;;;;;;;;;;;;;;4935207;29;9150;-83
2023/07/16 12:56:51;;;;;;;;;;;;;;;;;;4935252;29;8531;-83
2023/07/16 12:59:17;;;;;;;;;;;;;;;;;;4935673;29;8834;-81
2023/07/16 13:01:42;;;;;;;;;;;;;;;;;;4935125;29;8520;-84
2023/07/16 13:04:08;;;;;;;;;;;;;;;;;;4935464;29;8653;-82
2023/07/16 13:06:33;;;;;;;;;;;;;;;;;;4935004;29;8802;-83
2023/07/16 13:08:59;;;;;;;;;;;;;;;;;;4934886;29;8498;-81
2023/07/16 13:11:25;;;;;;;;;;;;;;;;;;4935156;29;8503;-83
2023/07/16 13:13:52;;;;;;;;;;;;;;;;;;4934847;29;8520;-84
2023/07/16 13:16:18;;;;;;;;;;;;;;;;;;4934943;29;7157;-84
2023/07/16 13:18:43;;;;;;;;;;;;;;;;;;4934973;29;8729;-83
2023/07/16 13:21:09;;;;;;;;;;;;;;;;;;4934823;29;8990;-80
2023/07/16 13:23:35;;;;;;;;;;;;;;;;;;4934893;29;7295;-83
2023/07/16 13:26:01;;;;;;;;;;;;;;;;;;4934891;29;8929;-83
2023/07/16 13:28:27;;;;;;;;;;;;;;;;;;4934282;29;8527;-82
2023/07/16 13:30:53;;;;;;;;;;;;;;;;;;4934597;29;8974;-81
2023/07/16 13:33:19;;;;;;;;;;;;;;;;;;4935073;29;8038;-83
2023/07/16 13:35:45;;;;;;;;;;;;;;;;;;4934871;29;7297;-82
2023/07/16 13:38:11;;;;;;;;;;;;;;;;;;4935069;29;7251;-82
2023/07/16 13:40:36;;;;;;;;;;;;;;;;;;4934731;29;8486;-83
2023/07/16 13:43:03;;;;;;;;;;;;;;;;;;4934918;29;8788;-82
2023/07/16 13:45:28;;;;;;;;;;;;;;;;;;4935971;29;8914;-86
2023/07/16 13:47:55;;;;;;;;;;;;;;;;;;4939322;29;8616;-83
2023/07/16 13:50:20;;;;;;;;;;;;;;;;;;4950080;28;7167;-83
2023/07/16 13:52:46;;;;;;;;;;;;;;;;;;4961893;28;8564;-83
2023/07/16 13:55:12;;;;;;;;;;;;;;;;;;4954046;28;8533;-84
2023/07/16 13:57:38;;;;;;;;;;;;;;;;;;4956957;28;8930;-82
2023/07/16 14:00:04;;;;;;;;;;;;;;;;;;4957411;28;8678;-83
2023/07/16 14:02:30;;;;;;;;;;;;;;;;;;4957564;28;8900;-83
2023/07/16 14:04:56;;;;;;;;;;;;;;;;;;4957366;28;8536;-84
2023/07/16 14:07:22;;;;;;;;;;;;;;;;;;4956874;28;8987;-83
2023/07/16 14:09:48;;;;;;;;;;;;;;;;;;4956155;28;8859;-83
2023/07/16 14:12:13;;;;;;;;;;;;;;;;;;4938412;29;8535;-85
2023/07/16 14:14:38;;;;;;;;;;;;;;;;;;4937900;29;8627;-83
2023/07/16 14:17:04;;;;;;;;;;;;;;;;;;4938272;29;8663;-84
2023/07/16 14:19:30;;;;;;;;;;;;;;;;;;4938076;29;8536;-82
2023/07/16 14:21:56;;;;;;;;;;;;;;;;;;4937950;29;8993;-83
2023/07/16 14:24:22;;;;;;;;;;;;;;;;;;4937761;29;7204;-84
2023/07/16 14:26:48;;;;;;;;;;;;;;;;;;4953860;28;7272;-84
2023/07/16 14:29:15;;;;;;;;;;;;;;;;;;4973153;28;7284;-84
2023/07/16 14:31:40;;;;;;;;;;;;;;;;;;4972933;28;7159;-82
2023/07/16 14:34:06;;;;;;;;;;;;;;;;;;4973240;28;7458;-84
2023/07/16 14:36:32;;;;;;;;;;;;;;;;;;4973245;28;7333;-82
2023/07/16 14:38:57;;;;;;;;;;;;;;;;;;4973110;28;8482;-84
2023/07/16 14:41:23;;;;;;;;;;;;;;;;;;4972928;28;7255;-83
2023/07/16 14:43:49;;;;;;;;;;;;;;;;;;4973054;28;8525;-83
2023/07/16 14:46:16;;;;;;;;;;;;;;;;;;4972759;28;8780;-83
2023/07/16 14:48:44;;;;;;;;;;;;;;;;;;4972832;28;7357;-83
2023/07/16 14:51:10;;;;;;;;;;;;;;;;;;4972515;28;8691;-83
2023/07/16 14:53:35;;;;;;;;;;;;;;;;;;4972495;28;7358;-83
2023/07/16 14:56:00;;;;;;;;;;;;;;;;;;4972902;28;8491;-83
2023/07/16 14:58:27;;;;;;;;;;;;;;;;;;4972302;28;7598;-83
2023/07/16 15:00:52;;;;;;;;;;;;;;;;;;4972773;28;8432;-85
2023/07/16 15:03:17;;;;;;;;;;;;;;;;;;4972674;28;8563;-83
2023/07/16 15:05:43;;;;;;;;;;;;;;;;;;4972609;28;8555;-81
2023/07/16 15:08:08;;;;;;;;;;;;;;;;;;4971661;28;8606;-82
2023/07/16 15:10:34;;;;;;;;;;;;;;;;;;4972502;28;7428;-82
2023/07/16 15:12:59;;;;;;;;;;;;;;;;;;4972534;28;8549;-82
2023/07/16 15:15:25;;;;;;;;;;;;;;;;;;4971572;28;8740;-81
2023/07/16 15:17:51;;;;;;;;;;;;;;;;;;4963385;28;8613;-83
2023/07/16 15:20:17;;;;;;;;;;;;;;;;;;4972283;28;8822;-83
2023/07/16 15:22:43;;;;;;;;;;;;;;;;;;4972375;28;8546;-84
2023/07/16 15:25:08;;;;;;;;;;;;;;;;;;4966206;28;8817;-83
2023/07/16 15:27:34;;;;;;;;;;;;;;;;;;4950819;28;8509;-82
2023/07/16 15:29:59;;;;;;;;;;;;;;;;;;4972192;28;8554;-82
2023/07/16 15:32:25;;;;;;;;;;;;;;;;;;4971729;28;7220;-83
2023/07/16 15:34:51;;;;;;;;;;;;;;;;;;4971874;28;8428;-83
2023/07/16 15:37:17;;;;;;;;;;;;;;;;;;4971541;28;8549;-83
2023/07/16 15:39:42;;;;;;;;;;;;;;;;;;4971846;28;7515;-83
2023/07/16 15:42:08;;;;;;;;;;;;;;;;;;4971603;28;8838;-81
2023/07/16 15:44:34;;;;;;;;;;;;;;;;;;4971522;28;8625;-83
2023/07/16 15:46:59;;;;;;;;;;;;;;;;;;4971505;28;7356;-83
2023/07/16 15:49:25;;;;;;;;;;;;;;;;;;4971782;28;7236;-81
2023/07/16 15:51:51;;;;;;;;;;;;;;;;;;4971555;28;8889;-84
2023/07/16 15:54:17;;;;;;;;;;;;;;;;;;4971455;28;8654;-83
2023/07/16 15:56:42;;;;;;;;;;;;;;;;;;4971238;28;7165;-85
2023/07/16 15:59:07;;;;;;;;;;;;;;;;;;4971254;28;8550;-83
2023/07/16 16:01:33;;;;;;;;;;;;;;;;;;4971490;28;7268;-83
2023/07/16 16:03:58;;;;;;;;;;;;;;;;;;4971503;28;8544;-84
2023/07/16 16:06:24;;;;;;;;;;;;;;;;;;4971512;28;7148;-84
2023/07/16 16:08:50;;;;;;;;;;;;;;;;;;4971311;28;8481;-83
2023/07/16 16:11:16;;;;;;;;;;;;;;;;;;4971226;28;7257;-82
2023/07/16 16:13:43;;;;;;;;;;;;;;;;;;4971228;28;8590;-84
2023/07/16 16:16:08;;;;;;;;;;;;;;;;;;4971294;28;8993;-84
2023/07/16 16:18:34;;;;;;;;;;;;;;;;;;4970437;28;8774;-84
2023/07/16 16:20:59;;;;;;;;;;;;;;;;;;4971081;28;7516;-83
2023/07/16 16:23:25;;;;;;;;;;;;;;;;;;4971069;28;8523;-83
2023/07/16 16:25:50;;;;;;;;;;;;;;;;;;4964277;28;8587;-83
2023/07/16 16:28:16;;;;;;;;;;;;;;;;;;4951786;28;7306;-81
2023/07/16 16:30:42;;;;;;;;;;;;;;;;;;4951733;28;8576;-84
2023/07/16 16:33:08;;;;;;;;;;;;;;;;;;4951405;28;7181;-83
2023/07/16 16:35:36;;;;;;;;;;;;;;;;;;4951427;28;8762;-85
2023/07/16 16:38:02;;;;;;;;;;;;;;;;;;4945234;28;8547;-82
2023/07/16 16:40:28;;;;;;;;;;;;;;;;;;4935781;28;7348;-81
2023/07/16 16:42:54;;;;;;;;;;;;;;;;;;4965894;28;7091;-81
2023/07/16 16:45:19;;;;;;;;;;;;;;;;;;4951183;28;8614;-80
2023/07/16 16:47:45;;;;;;;;;;;;;;;;;;4951230;28;8576;-81
2023/07/16 16:50:11;;;;;;;;;;;;;;;;;;4951296;28;8552;-82
2023/07/16 16:52:37;;;;;;;;;;;;;;;;;;4951007;28;8601;-82
2023/07/16 16:55:03;;;;;;;;;;;;;;;;;;4951215;28;7101;-83
2023/07/16 16:57:29;;;;;;;;;;;;;;;;;;4936291;28;8802;-85